Time;durP1;ratioP1;P1;durP2;ratioP2;P2;SDS_P1;SDS_P2;PMS_P1;PMS_P2;Temp;Humidity;BMP_temperature;BMP_pressure;BME280_temperature;BME280_humidity;BME280_pressure;Samples;Min_cycle;Max_cycle;Signal;HPM_P1;HPM_P2
2023/10/05 00:01:56;;;;;;;0.88;0.40;;;12.50;1.00;;;;;;5136624;27;20418;-59
2023/10/05 00:04:26;;;;;;;1.10;0.30;;;12.50;1.00;;;;;;5136175;27;20509;-58
2023/10/05 00:06:54;;;;;;;1.00;0.30;;;12.40;1.00;;;;;;5136525;27;20438;-59
2023/10/05 00:09:24;;;;;;;0.80;0.40;;;12.40;1.00;;;;;;5137054;27;20441;-59
2023/10/05 00:11:54;;;;;;;0.50;0.30;;;12.40;1.00;;;;;;5136174;27;20725;-59
2023/10/05 00:14:24;;;;;;;1.00;0.30;;;12.40;1.00;;;;;;5136611;27;20421;-59
2023/10/05 00:16:54;;;;;;;0.70;0.30;;;12.30;1.00;;;;;;5136153;27;20418;-59
2023/10/05 00:19:24;;;;;;;1.40;0.30;;;12.30;1.00;;;;;;5135473;27;20440;-59
2023/10/05 00:21:51;;;;;;;1.00;0.30;;;12.20;1.00;;;;;;5133952;27;20413;-60
2023/10/05 00:24:23;;;;;;;1.27;0.40;;;12.20;1.00;;;;;;5134694;27;20421;-60
2023/10/05 00:26:56;;;;;;;0.60;0.30;;;12.20;1.00;;;;;;5134889;27;20434;-60
2023/10/05 00:29:27;;;;;;;0.70;0.30;;;12.10;1.00;;;;;;5132852;27;20632;-60
2023/10/05 00:31:58;;;;;;;0.70;0.30;;;12.20;1.00;;;;;;5132149;27;20512;-59
2023/10/05 00:34:27;;;;;;;1.10;0.30;;;12.10;1.00;;;;;;5132759;27;20413;-59
2023/10/05 00:36:57;;;;;;;1.20;0.50;;;12.10;1.00;;;;;;5133084;27;20463;-59
2023/10/05 00:39:25;;;;;;;0.70;0.30;;;12.10;1.00;;;;;;5132064;27;20423;-60
2023/10/05 00:42:06;;;;;;;0.70;0.30;;;12.00;1.00;;;;;;5132952;27;20457;-59
2023/10/05 00:44:36;;;;;;;0.63;0.30;;;12.00;1.00;;;;;;5134960;28;20423;-59
2023/10/05 00:47:05;;;;;;;0.60;0.30;;;11.90;1.00;;;;;;5135524;28;20826;-59
2023/10/05 00:49:41;;;;;;;0.50;0.20;;;12.00;1.00;;;;;;5135041;28;20450;-59
2023/10/05 00:52:14;;;;;;;0.60;0.30;;;12.00;1.00;;;;;;5135024;28;20418;-60
2023/10/05 00:54:44;;;;;;;0.80;0.32;;;11.90;1.00;;;;;;5135798;28;20843;-60
2023/10/05 00:57:16;;;;;;;1.05;0.30;;;12.00;1.00;;;;;;5135094;28;20710;-60
2023/10/05 00:59:47;;;;;;;0.70;0.30;;;12.00;1.00;;;;;;5134977;28;20437;-60
2023/10/05 01:02:21;;;;;;;0.80;0.30;;;12.00;1.00;;;;;;5135540;28;20726;-59
2023/10/05 01:04:56;;;;;;;0.70;0.30;;;12.00;1.00;;;;;;5135514;28;20522;-60
2023/10/05 01:07:43;;;;;;;1.40;0.30;;;12.00;1.00;;;;;;5135115;28;20864;-59
2023/10/05 01:10:39;;;;;;;1.48;0.40;;;12.00;1.00;;;;;;5135354;28;20415;-60
2023/10/05 01:13:29;;;;;;;0.68;0.38;;;12.00;1.00;;;;;;5135415;28;20415;-59
2023/10/05 01:15:57;;;;;;;0.88;0.30;;;12.10;1.00;;;;;;5135292;28;20410;-60
2023/10/05 01:18:26;;;;;;;0.98;0.30;;;12.00;1.00;;;;;;5135096;28;20418;-59
2023/10/05 01:20:55;;;;;;;1.10;0.32;;;12.10;1.00;;;;;;5135053;28;20415;-59
2023/10/05 01:23:38;;;;;;;1.20;0.30;;;12.10;1.00;;;;;;5135488;27;20458;-59
2023/10/05 01:26:10;;;;;;;1.00;0.30;;;12.20;1.00;;;;;;5139058;27;20486;-59
2023/10/05 01:28:40;;;;;;;0.60;0.30;;;12.20;1.00;;;;;;5138385;27;20418;-59
2023/10/05 01:31:12;;;;;;;1.30;0.30;;;12.10;1.00;;;;;;5137709;27;20493;-60
2023/10/05 01:33:40;;;;;;;0.95;0.30;;;12.10;1.00;;;;;;5138048;27;20432;-60
2023/10/05 01:36:07;;;;;;;0.60;0.30;;;12.10;1.00;;;;;;5138662;27;20708;-59
2023/10/05 01:38:37;;;;;;;0.70;0.30;;;12.10;1.00;;;;;;5138722;27;20418;-60
2023/10/05 01:41:06;;;;;;;0.70;0.30;;;12.10;1.00;;;;;;5138858;27;20433;-59
2023/10/05 01:43:35;;;;;;;0.88;0.30;;;12.10;1.00;;;;;;5138317;27;20498;-59
2023/10/05 01:46:04;;;;;;;0.80;0.40;;;12.10;1.00;;;;;;5138945;27;20415;-59
2023/10/05 01:48:32;;;;;;;0.80;0.40;;;12.10;1.00;;;;;;5138865;27;20509;-59
2023/10/05 01:51:07;;;;;;;1.00;0.30;;;12.10;1.00;;;;;;5139334;27;20429;-59
2023/10/05 01:53:36;;;;;;;0.95;0.40;;;12.10;1.00;;;;;;5139391;27;20448;-60
2023/10/05 01:56:03;;;;;;;1.00;0.40;;;12.10;1.00;;;;;;5139087;27;20419;-59
2023/10/05 01:58:34;;;;;;;1.08;0.40;;;12.00;1.00;;;;;;5138694;27;20410;-60
2023/10/05 02:01:01;;;;;;;0.75;0.40;;;12.00;1.00;;;;;;5138630;27;20602;-60
2023/10/05 02:03:28;;;;;;;0.70;0.30;;;12.10;1.00;;;;;;5139311;27;20914;-60
2023/10/05 02:06:05;;;;;;;2.30;0.40;;;12.00;1.00;;;;;;5139000;27;20820;-59
2023/10/05 02:08:36;;;;;;;0.60;0.30;;;12.00;1.00;;;;;;5120191;27;20441;-59
2023/10/05 02:11:06;;;;;;;0.77;0.30;;;11.90;1.00;;;;;;5137096;27;20430;-59
2023/10/05 02:13:34;;;;;;;1.20;0.40;;;11.90;1.00;;;;;;5137571;27;20454;-59
2023/10/05 02:16:01;;;;;;;0.80;0.30;;;11.80;1.00;;;;;;5137584;27;20407;-60
2023/10/05 02:18:31;;;;;;;0.85;0.30;;;11.90;1.00;;;;;;5136456;27;20426;-60
2023/10/05 02:21:05;;;;;;;1.58;0.40;;;11.90;1.00;;;;;;5136607;27;20908;-60
2023/10/05 02:23:40;;;;;;;0.70;0.40;;;11.90;1.00;;;;;;5138002;27;20423;-59
2023/10/05 02:26:23;;;;;;;0.70;0.40;;;11.90;1.00;;;;;;5138254;27;20425;-59
2023/10/05 02:28:50;;;;;;;0.60;0.30;;;11.90;1.00;;;;;;5138917;27;20418;-59
2023/10/05 02:31:20;;;;;;;0.70;0.30;;;11.80;1.00;;;;;;5138551;27;20749;-60
2023/10/05 02:33:47;;;;;;;0.60;0.30;;;11.70;1.00;;;;;;5138026;27;20422;-59
2023/10/05 02:36:20;;;;;;;0.68;0.30;;;11.70;1.00;;;;;;5138079;27;20499;-60
2023/10/05 02:38:53;;;;;;;0.70;0.30;;;11.70;1.00;;;;;;5137908;27;20444;-60
2023/10/05 02:41:37;;;;;;;1.10;0.40;;;11.80;1.00;;;;;;5137745;27;20836;-60
2023/10/05 02:44:16;;;;;;;0.60;0.35;;;11.80;1.00;;;;;;5136964;27;20426;-60
2023/10/05 02:46:44;;;;;;;0.50;0.30;;;11.80;1.00;;;;;;5137327;27;21055;-60
2023/10/05 02:49:15;;;;;;;0.80;0.40;;;11.90;1.00;;;;;;5138276;27;20410;-60
2023/10/05 02:51:43;;;;;;;1.20;0.30;;;11.90;1.00;;;;;;5138194;27;20430;-59
2023/10/05 02:54:12;;;;;;;0.98;0.40;;;12.00;1.00;;;;;;5137888;27;20737;-59
2023/10/05 02:56:41;;;;;;;0.68;0.40;;;12.00;1.00;;;;;;5138387;27;20821;-60
2023/10/05 02:59:09;;;;;;;0.65;0.40;;;12.00;1.00;;;;;;5138267;27;20458;-60
2023/10/05 03:01:37;;;;;;;1.73;0.40;;;11.90;1.00;;;;;;5137494;27;20442;-59
2023/10/05 03:04:16;;;;;;;0.88;0.30;;;11.90;1.00;;;;;;5137974;27;20415;-60
2023/10/05 03:06:45;;;;;;;0.80;0.30;;;11.80;1.00;;;;;;5138003;27;20435;-61
2023/10/05 03:09:12;;;;;;;0.70;0.32;;;11.80;1.00;;;;;;5138066;27;20521;-60
2023/10/05 03:11:42;;;;;;;0.90;0.40;;;11.70;1.00;;;;;;5137692;27;20497;-60
2023/10/05 03:14:11;;;;;;;0.60;0.30;;;11.60;1.00;;;;;;5137632;27;20418;-60
2023/10/05 03:16:44;;;;;;;0.88;0.30;;;11.50;1.00;;;;;;5136986;27;21003;-60
2023/10/05 03:19:14;;;;;;;1.00;0.30;;;11.60;1.00;;;;;;5135904;27;20410;-60
2023/10/05 03:21:43;;;;;;;0.70;0.30;;;11.60;1.00;;;;;;5136317;27;20496;-60
2023/10/05 03:24:13;;;;;;;0.68;0.30;;;11.60;1.00;;;;;;5136166;27;20521;-59
2023/10/05 03:26:42;;;;;;;1.42;0.30;;;11.70;1.00;;;;;;5135500;27;20841;-59
2023/10/05 03:29:11;;;;;;;3.20;0.40;;;11.70;1.00;;;;;;5136382;27;20501;-59
2023/10/05 03:31:43;;;;;;;0.90;0.40;;;11.60;1.00;;;;;;5136410;27;20415;-59
2023/10/05 03:34:11;;;;;;;1.10;0.40;;;11.60;1.00;;;;;;5137490;27;20427;-59
2023/10/05 03:36:38;;;;;;;1.80;0.30;;;11.60;1.00;;;;;;5136960;27;20426;-59
2023/10/05 03:39:07;;;;;;;0.70;0.40;;;11.60;1.00;;;;;;5137009;27;20414;-59
2023/10/05 03:41:38;;;;;;;1.00;0.40;;;11.60;1.00;;;;;;5136744;27;20859;-59
2023/10/05 03:44:08;;;;;;;0.70;0.30;;;11.60;1.00;;;;;;5136461;27;20874;-59
2023/10/05 03:46:36;;;;;;;0.57;0.30;;;11.50;1.00;;;;;;5135952;27;20407;-60
2023/10/05 03:49:06;;;;;;;0.60;0.30;;;11.60;1.00;;;;;;5135740;27;20772;-59
2023/10/05 03:51:37;;;;;;;1.85;0.30;;;11.50;1.00;;;;;;5135617;27;20508;-60
2023/10/05 03:54:07;;;;;;;0.68;0.30;;;11.50;1.00;;;;;;5134757;27;20418;-60
2023/10/05 03:56:36;;;;;;;1.67;0.40;;;11.50;1.00;;;;;;5134866;27;20423;-60
2023/10/05 03:59:03;;;;;;;1.58;0.45;;;11.50;1.00;;;;;;5135115;27;20422;-58
2023/10/05 04:01:32;;;;;;;2.80;0.40;;;11.50;1.00;;;;;;5134294;27;20414;-59
2023/10/05 04:04:04;;;;;;;1.92;0.40;;;11.50;1.00;;;;;;5135111;27;20414;-59
2023/10/05 04:06:31;;;;;;;1.00;0.40;;;11.50;1.00;;;;;;5135469;27;20471;-60
2023/10/05 04:08:59;;;;;;;1.40;0.40;;;11.50;1.00;;;;;;5136501;27;20418;-60
2023/10/05 04:11:27;;;;;;;1.50;0.40;;;11.60;1.00;;;;;;5136526;27;20471;-60
2023/10/05 04:13:55;;;;;;;1.90;0.40;;;11.60;1.00;;;;;;5136654;27;20415;-60
2023/10/05 04:16:26;;;;;;;0.70;0.40;;;11.50;1.00;;;;;;5134844;27;20410;-60
2023/10/05 04:18:58;;;;;;;1.20;0.40;;;11.50;1.00;;;;;;5134793;27;20557;-59
2023/10/05 04:21:26;;;;;;;0.70;0.40;;;11.40;1.00;;;;;;5136520;27;20444;-61
2023/10/05 04:23:53;;;;;;;1.30;0.50;;;11.30;1.00;;;;;;5119623;27;20707;-60
2023/10/05 04:26:21;;;;;;;1.40;0.50;;;11.40;1.00;;;;;;5136653;27;20418;-60
2023/10/05 04:28:57;;;;;;;0.80;0.50;;;11.50;1.00;;;;;;5136207;27;20464;-60
2023/10/05 04:31:26;;;;;;;0.93;0.47;;;11.50;1.00;;;;;;5135697;27;20410;-61
2023/10/05 04:33:56;;;;;;;1.90;0.50;;;11.50;1.00;;;;;;5135707;27;20492;-61
2023/10/05 04:36:24;;;;;;;0.70;0.40;;;11.50;1.00;;;;;;5135505;27;20423;-61
2023/10/05 04:38:53;;;;;;;0.68;0.38;;;11.50;1.00;;;;;;5135700;27;20421;-61
2023/10/05 04:41:28;;;;;;;1.00;0.40;;;11.60;1.00;;;;;;5133861;27;20426;-61
2023/10/05 04:43:56;;;;;;;0.70;0.30;;;11.60;1.00;;;;;;5125043;27;20440;-61
2023/10/05 04:46:24;;;;;;;1.00;0.40;;;11.60;1.00;;;;;;5127240;28;20406;-59
2023/10/05 04:49:07;;;;;;;0.90;0.40;;;11.60;1.00;;;;;;5134348;28;20449;-61
2023/10/05 04:51:38;;;;;;;1.20;0.50;;;11.60;1.00;;;;;;5135514;28;20848;-61
2023/10/05 04:54:07;;;;;;;0.70;0.40;;;11.70;1.00;;;;;;5135180;28;20783;-60
2023/10/05 04:56:40;;;;;;;0.70;0.35;;;11.60;1.00;;;;;;5135656;28;20419;-61
2023/10/05 05:02:00;;;;;;;0.70;0.40;;;11.70;1.00;;;;;;5135057;27;20534;-61
2023/10/05 05:04:28;;;;;;;1.10;0.40;;;11.70;1.00;;;;;;5136929;27;20837;-60
2023/10/05 05:06:58;;;;;;;1.60;0.40;;;11.60;1.00;;;;;;5137202;27;20411;-61
2023/10/05 05:09:29;;;;;;;0.90;0.40;;;11.60;1.00;;;;;;5136571;27;20429;-61
2023/10/05 05:12:03;;;;;;;0.80;0.40;;;11.60;1.00;;;;;;5136638;27;20972;-61
2023/10/05 05:14:32;;;;;;;1.20;0.40;;;11.60;1.00;;;;;;5136106;27;20714;-61
2023/10/05 05:17:02;;;;;;;0.93;0.40;;;11.60;1.00;;;;;;5137618;27;20417;-61
2023/10/05 05:19:29;;;;;;;2.00;0.40;;;11.50;1.00;;;;;;5137135;27;20411;-60
2023/10/05 05:21:59;;;;;;;0.90;0.40;;;11.50;1.00;;;;;;5137446;27;20419;-59
2023/10/05 05:24:29;;;;;;;1.70;0.50;;;11.50;1.00;;;;;;5136904;27;20422;-61
2023/10/05 05:27:00;;;;;;;1.23;0.45;;;11.60;1.00;;;;;;5135952;27;20540;-61
2023/10/05 05:29:32;;;;;;;0.60;0.40;;;11.50;1.00;;;;;;5137084;27;20426;-61
2023/10/05 05:32:07;;;;;;;1.10;0.50;;;11.40;1.00;;;;;;5134963;27;20422;-61
2023/10/05 05:34:34;;;;;;;1.80;0.47;;;11.50;1.00;;;;;;5137017;27;20725;-61
2023/10/05 05:37:04;;;;;;;0.80;0.40;;;11.40;1.00;;;;;;5137745;27;20410;-61
2023/10/05 05:39:38;;;;;;;1.10;0.50;;;11.40;1.00;;;;;;5137973;27;20856;-61
2023/10/05 05:42:07;;;;;;;1.17;0.45;;;11.40;1.00;;;;;;5137312;27;20767;-61
2023/10/05 05:44:35;;;;;;;1.45;0.50;;;11.40;1.00;;;;;;5136566;27;20418;-61
2023/10/05 05:47:09;;;;;;;0.90;0.40;;;11.40;1.00;;;;;;5133767;27;20418;-61
2023/10/05 05:49:38;;;;;;;1.92;0.50;;;11.50;1.00;;;;;;5136644;27;20662;-60
2023/10/05 05:52:08;;;;;;;1.50;0.50;;;11.50;1.00;;;;;;5135859;27;20425;-60
2023/10/05 05:54:36;;;;;;;1.00;0.40;;;11.60;1.00;;;;;;5135295;27;20461;-61
2023/10/05 05:57:05;;;;;;;0.98;0.40;;;11.60;1.00;;;;;;5133810;27;20426;-61
2023/10/05 05:59:34;;;;;;;0.68;0.40;;;11.70;1.00;;;;;;5135034;27;20418;-61
2023/10/05 06:02:03;;;;;;;1.15;0.50;;;11.80;1.00;;;;;;5133697;27;20434;-60
2023/10/05 06:04:32;;;;;;;0.90;0.40;;;11.70;1.00;;;;;;5136109;27;20509;-58
2023/10/05 06:07:00;;;;;;;1.60;0.50;;;11.70;1.00;;;;;;5134580;27;20413;-59
2023/10/05 06:09:33;;;;;;;2.30;0.40;;;11.70;1.00;;;;;;5135122;27;20466;-60
2023/10/05 06:12:01;;;;;;;0.90;0.40;;;11.90;1.00;;;;;;5136370;27;20698;-59
2023/10/05 06:14:31;;;;;;;1.00;0.50;;;12.00;1.00;;;;;;5134641;27;20418;-59
2023/10/05 06:16:58;;;;;;;1.20;0.45;;;12.00;1.00;;;;;;5134516;27;20463;-62
2023/10/05 06:19:27;;;;;;;1.40;0.32;;;11.90;1.00;;;;;;5136031;27;20446;-58
2023/10/05 06:21:54;;;;;;;0.70;0.40;;;12.00;1.00;;;;;;5132771;27;20755;-58
2023/10/05 06:24:21;;;;;;;0.70;0.40;;;12.00;1.00;;;;;;5135950;27;20466;-57
2023/10/05 06:26:50;;;;;;;1.95;0.70;;;12.00;1.00;;;;;;5133828;27;20458;-57
2023/10/05 06:29:17;;;;;;;1.52;0.50;;;11.90;1.00;;;;;;5132961;27;20844;-55
2023/10/05 06:31:44;;;;;;;1.40;0.43;;;12.00;1.00;;;;;;5133719;27;20971;-58
2023/10/05 06:34:12;;;;;;;1.70;0.50;;;12.00;1.00;;;;;;5134978;27;20595;-57
2023/10/05 06:36:41;;;;;;;1.50;0.50;;;12.10;1.00;;;;;;5133208;27;20513;-57
2023/10/05 06:39:09;;;;;;;1.20;0.40;;;12.10;1.00;;;;;;5133366;27;20440;-57
2023/10/05 06:41:37;;;;;;;0.80;0.40;;;12.20;1.00;;;;;;5131532;27;20479;-57
2023/10/05 06:44:07;;;;;;;0.80;0.40;;;12.40;1.00;;;;;;5133537;27;20733;-57
2023/10/05 06:46:36;;;;;;;1.30;0.50;;;12.70;1.00;;;;;;5120227;27;20765;-57
2023/10/05 06:49:05;;;;;;;0.85;0.50;;;12.70;1.00;;;;;;5135579;27;20520;-57
2023/10/05 06:51:32;;;;;;;0.90;0.50;;;12.70;1.00;;;;;;5132430;27;20454;-56
2023/10/05 06:54:00;;;;;;;0.80;0.40;;;12.60;1.00;;;;;;5116715;27;20568;-56
2023/10/05 06:56:28;;;;;;;1.23;0.50;;;12.50;1.00;;;;;;5133421;27;20491;-58
2023/10/05 06:58:55;;;;;;;1.60;0.50;;;12.30;1.00;;;;;;5134555;27;20463;-58
2023/10/05 07:01:24;;;;;;;1.00;0.50;;;12.20;1.00;;;;;;5114357;28;20408;-55
2023/10/05 07:03:53;;;;;;;2.05;0.50;;;12.10;1.00;;;;;;5132987;27;20437;-58
2023/10/05 07:06:24;;;;;;;1.60;0.40;;;12.20;1.00;;;;;;5135305;27;21041;-58
2023/10/05 07:08:52;;;;;;;0.75;0.50;;;12.40;1.00;;;;;;5132016;27;20984;-57
2023/10/05 07:11:19;;;;;;;0.90;0.40;;;12.50;1.00;;;;;;5133101;27;20465;-59
2023/10/05 07:13:47;;;;;;;1.30;0.50;;;12.80;1.00;;;;;;5130914;27;20545;-58
2023/10/05 07:16:14;;;;;;;0.80;0.50;;;13.10;1.00;;;;;;5137657;27;20426;-58
2023/10/05 07:18:43;;;;;;;0.90;0.40;;;13.30;99.90;;;;;;5132007;27;20524;-58
2023/10/05 07:21:11;;;;;;;1.30;0.40;;;13.40;99.90;;;;;;5130947;27;20776;-58
2023/10/05 07:23:39;;;;;;;1.20;0.45;;;13.40;99.90;;;;;;5131153;27;20434;-58
2023/10/05 07:26:06;;;;;;;0.90;0.50;;;13.20;99.90;;;;;;5133409;27;20864;-58
2023/10/05 07:28:35;;;;;;;0.80;0.50;;;13.20;99.90;;;;;;5130188;27;20741;-58
2023/10/05 07:31:04;;;;;;;1.23;0.50;;;13.20;99.90;;;;;;5121953;27;20422;-59
2023/10/05 07:33:33;;;;;;;1.33;0.40;;;13.20;1.00;;;;;;5129386;27;20442;-58
2023/10/05 07:36:02;;;;;;;0.80;0.45;;;13.10;1.00;;;;;;5130939;27;20806;-58
2023/10/05 07:38:30;;;;;;;0.90;0.50;;;13.10;1.00;;;;;;5132348;27;20426;-58
2023/10/05 07:40:57;;;;;;;2.95;0.50;;;13.20;1.00;;;;;;5130583;27;20721;-58
2023/10/05 07:43:27;;;;;;;1.07;0.40;;;13.60;99.90;;;;;;5129762;27;20441;-59
2023/10/05 07:45:54;;;;;;;1.70;0.50;;;13.90;99.90;;;;;;5130356;27;20453;-58
2023/10/05 07:48:21;;;;;;;1.20;0.50;;;14.20;99.90;;;;;;5133416;27;20603;-58
2023/10/05 07:50:49;;;;;;;1.60;0.40;;;14.40;1.00;;;;;;5128889;27;20521;-57
2023/10/05 07:53:19;;;;;;;1.00;0.57;;;14.60;5.40;;;;;;5133034;27;20465;-57
2023/10/05 07:55:47;;;;;;;1.20;0.50;;;14.70;1.00;;;;;;5132053;27;20504;-57
2023/10/05 07:58:14;;;;;;;2.00;0.60;;;14.60;1.00;;;;;;5134113;27;20510;-58
2023/10/05 08:00:42;;;;;;;1.13;0.50;;;14.60;1.00;;;;;;5129829;27;20433;-58
2023/10/05 08:03:09;;;;;;;1.70;0.60;;;14.30;1.00;;;;;;5133118;27;20434;-58
2023/10/05 08:05:36;;;;;;;0.87;0.50;;;14.00;99.90;;;;;;5131548;27;20881;-58
2023/10/05 08:08:04;;;;;;;1.03;0.60;;;13.90;1.00;;;;;;5119966;27;20881;-58
2023/10/05 08:10:33;;;;;;;2.30;0.52;;;14.00;1.00;;;;;;5127003;27;20483;-57
2023/10/05 08:13:03;;;;;;;1.30;0.60;;;14.10;1.00;;;;;;5130704;27;20418;-59
2023/10/05 08:15:30;;;;;;;1.13;0.70;;;14.20;1.00;;;;;;5132788;27;20430;-59
2023/10/05 08:17:57;;;;;;;1.60;0.50;;;14.20;99.90;;;;;;5130288;27;20768;-58
2023/10/05 08:20:26;;;;;;;0.90;0.50;;;14.20;1.00;;;;;;5130093;27;20517;-59
2023/10/05 08:22:54;;;;;;;3.20;0.50;;;14.10;99.90;;;;;;5131152;27;20441;-58
2023/10/05 08:25:22;;;;;;;1.30;0.60;;;14.10;99.90;;;;;;5128660;27;20524;-59
2023/10/05 08:27:51;;;;;;;2.10;0.70;;;14.10;99.90;;;;;;5132860;27;20422;-58
2023/10/05 08:30:19;;;;;;;1.30;0.50;;;14.10;1.00;;;;;;5131754;27;20513;-59
2023/10/05 08:32:48;;;;;;;1.20;0.50;;;14.10;99.90;;;;;;5130718;27;20430;-56
2023/10/05 08:35:17;;;;;;;1.63;0.70;;;14.40;8.00;;;;;;5131965;27;20426;-58
2023/10/05 08:37:48;;;;;;;1.83;0.60;;;14.50;99.90;;;;;;5132812;27;20433;-58
2023/10/05 08:40:37;;;;;;;1.80;0.80;;;14.80;1.00;;;;;;5128516;27;20663;-58
2023/10/05 08:43:10;;;;;;;3.70;0.70;;;15.00;1.00;;;;;;5087197;28;21027;-59
2023/10/05 08:45:50;;;;;;;3.50;0.80;;;15.10;1.00;;;;;;5087217;28;20465;-58
2023/10/05 08:48:28;;;;;;;2.00;0.70;;;15.30;99.90;;;;;;5091073;28;20444;-58
2023/10/05 08:50:58;;;;;;;1.90;0.70;;;15.30;99.90;;;;;;5092263;28;20460;-57
2023/10/05 08:53:25;;;;;;;1.38;0.70;;;15.50;1.00;;;;;;5092538;28;20437;-59
2023/10/05 08:55:54;;;;;;;1.38;0.70;;;15.70;1.00;;;;;;5092022;28;20460;-59
2023/10/05 08:58:23;;;;;;;1.45;0.70;;;15.60;99.90;;;;;;5089350;28;20446;-59
2023/10/05 09:00:51;;;;;;;2.08;0.60;;;15.60;99.90;;;;;;5088217;28;20425;-60
2023/10/05 09:03:29;;;;;;;2.92;0.60;;;15.50;99.90;;;;;;5088604;28;20440;-59
2023/10/05 09:06:13;;;;;;;1.90;0.60;;;15.50;1.00;;;;;;5088812;28;20433;-56
2023/10/05 09:09:01;;;;;;;2.53;0.70;;;15.60;99.90;;;;;;5089648;28;20429;-59
2023/10/05 09:11:31;;;;;;;2.42;0.80;;;15.80;99.90;;;;;;5091823;28;20779;-59
2023/10/05 09:14:12;;;;;;;1.65;0.60;;;15.80;99.90;;;;;;5090885;28;20856;-59
2023/10/05 09:16:42;;;;;;;1.13;0.60;;;15.80;99.90;;;;;;5089073;28;20429;-58
2023/10/05 09:19:12;;;;;;;1.20;0.50;;;15.70;99.90;;;;;;5088778;28;20430;-58
2023/10/05 09:21:44;;;;;;;1.60;0.50;;;15.80;99.90;;;;;;5088825;28;20438;-58
2023/10/05 09:24:21;;;;;;;1.48;0.57;;;16.00;99.90;;;;;;5087441;28;20425;-58
2023/10/05 09:26:55;;;;;;;1.60;0.60;;;16.40;68.30;;;;;;5087617;28;20454;-58
2023/10/05 09:29:27;;;;;;;1.77;0.60;;;16.50;1.00;;;;;;5089764;28;20516;-58
2023/10/05 09:31:56;;;;;;;1.70;0.60;;;16.80;1.00;;;;;;5088603;28;20434;-59
2023/10/05 09:34:38;;;;;;;1.20;0.50;;;17.00;1.00;;;;;;5088441;28;20418;-58
2023/10/05 09:37:07;;;;;;;2.60;0.60;;;17.30;1.00;;;;;;5083686;28;20441;-60
2023/10/05 09:39:42;;;;;;;1.40;0.60;;;17.30;99.90;;;;;;5072845;28;21014;-60
2023/10/05 09:42:17;;;;;;;1.40;0.60;;;17.30;1.00;;;;;;5112626;28;20515;-60
2023/10/05 09:44:51;;;;;;;2.05;0.60;;;17.20;1.00;;;;;;5121199;27;20414;-60
2023/10/05 09:47:21;;;;;;;1.50;0.70;;;17.20;1.00;;;;;;5125199;27;20432;-59
2023/10/05 09:49:50;;;;;;;1.52;0.60;;;17.00;1.00;;;;;;5120981;27;20483;-60
2023/10/05 09:52:21;;;;;;;2.08;0.70;;;16.90;1.00;;;;;;5128420;27;20434;-60
2023/10/05 09:54:49;;;;;;;2.50;0.60;;;16.50;1.00;;;;;;5134421;27;20509;-60
2023/10/05 09:57:20;;;;;;;3.28;0.70;;;16.30;1.00;;;;;;5135404;27;20526;-61
2023/10/05 09:59:57;;;;;;;3.90;0.70;;;16.20;1.00;;;;;;5135774;27;20751;-60
2023/10/05 10:02:33;;;;;;;2.03;0.60;;;16.40;1.00;;;;;;5134157;27;20460;-60
2023/10/05 10:05:05;;;;;;;1.20;0.65;;;16.70;1.00;;;;;;5132069;27;20530;-60
2023/10/05 10:07:34;;;;;;;2.00;0.60;;;17.00;1.00;;;;;;5132350;27;20421;-61
2023/10/05 10:10:04;;;;;;;2.80;0.60;;;17.30;1.00;;;;;;5113628;27;20477;-59
2023/10/05 10:12:38;;;;;;;1.80;0.70;;;17.40;99.90;;;;;;5128908;27;20446;-59
2023/10/05 10:15:24;;;;;;;2.00;0.70;;;17.50;99.90;;;;;;5132944;27;20433;-58
2023/10/05 10:18:03;;;;;;;2.00;0.60;;;17.40;99.90;;;;;;5127943;27;20454;-60
2023/10/05 10:20:36;;;;;;;1.55;0.57;;;17.50;99.90;;;;;;5123311;27;20435;-59
2023/10/05 10:23:14;;;;;;;1.60;0.50;;;17.50;99.90;;;;;;5134754;27;20438;-59
2023/10/05 10:25:42;;;;;;;1.90;0.50;;;17.70;99.90;;;;;;5131694;27;20779;-59
2023/10/05 10:28:20;;;;;;;1.90;0.50;;;17.60;99.90;;;;;;5129538;27;20437;-59
2023/10/05 10:31:11;;;;;;;1.70;0.60;;;17.30;99.90;;;;;;5132971;27;20989;-59
2023/10/05 10:33:40;;;;;;;1.42;0.63;;;17.50;99.90;;;;;;5135270;27;20420;-58
2023/10/05 10:36:18;;;;;;;3.10;0.70;;;17.80;99.90;;;;;;5134424;27;20426;-58
2023/10/05 10:38:47;;;;;;;1.23;0.60;;;18.10;99.90;;;;;;5129917;27;20427;-59
2023/10/05 10:41:16;;;;;;;1.20;0.60;;;18.40;99.90;;;;;;5130614;27;20422;-58
2023/10/05 10:43:49;;;;;;;2.38;0.60;;;18.70;48.20;;;;;;5110330;28;20420;-59
2023/10/05 10:46:30;;;;;;;2.30;0.70;;;18.60;1.80;;;;;;5110705;28;20510;-58
2023/10/05 10:48:59;;;;;;;1.30;0.50;;;18.50;18.30;;;;;;5123615;27;22660;-58
2023/10/05 10:51:31;;;;;;;2.00;0.50;;;18.60;12.60;;;;;;5130842;27;20461;-58
2023/10/05 10:54:08;;;;;;;1.60;0.60;;;18.60;6.70;;;;;;5129284;27;20434;-57
2023/10/05 10:56:42;;;;;;;3.22;0.60;;;18.60;8.20;;;;;;5128750;27;20505;-58
2023/10/05 10:59:13;;;;;;;1.33;0.50;;;18.90;1.00;;;;;;5120318;27;20418;-58
2023/10/05 11:01:45;;;;;;;1.40;0.50;;;19.10;1.00;;;;;;5126686;27;20834;-58
2023/10/05 11:04:25;;;;;;;3.00;0.60;;;19.10;1.00;;;;;;5134165;27;20428;-58
2023/10/05 11:06:56;;;;;;;1.90;0.70;;;19.20;1.00;;;;;;5130658;27;20434;-58
2023/10/05 11:09:36;;;;;;;1.40;0.50;;;19.20;1.00;;;;;;5130535;27;20854;-58
2023/10/05 11:12:15;;;;;;;1.40;0.50;;;19.10;1.00;;;;;;5129043;27;20484;-58
2023/10/05 11:14:43;;;;;;;1.98;0.60;;;19.10;1.00;;;;;;5132142;27;20736;-58
2023/10/05 11:17:35;;;;;;;1.10;0.50;;;19.10;1.00;;;;;;5130348;27;20466;-58
2023/10/05 11:20:14;;;;;;;1.00;0.40;;;19.10;1.00;;;;;;5130376;27;20847;-58
2023/10/05 11:22:43;;;;;;;1.70;0.50;;;18.70;1.00;;;;;;5134431;27;20438;-58
2023/10/05 11:25:23;;;;;;;1.40;0.50;;;18.60;1.00;;;;;;5131515;27;20433;-58
2023/10/05 11:27:58;;;;;;;1.50;0.50;;;18.40;1.00;;;;;;5127847;27;20483;-58
2023/10/05 11:30:41;;;;;;;1.50;0.50;;;18.60;1.00;;;;;;5133231;27;20431;-58
2023/10/05 11:33:16;;;;;;;1.40;0.50;;;18.50;1.00;;;;;;5121343;27;20441;-58
2023/10/05 11:35:52;;;;;;;1.25;0.50;;;18.80;1.00;;;;;;5121484;27;20428;-59
2023/10/05 11:38:26;;;;;;;1.70;0.50;;;18.70;1.00;;;;;;5127930;27;20465;-58
2023/10/05 11:40:55;;;;;;;2.17;0.60;;;18.20;1.00;;;;;;5132194;27;20418;-58
2023/10/05 11:43:23;;;;;;;1.30;0.60;;;18.20;1.00;;;;;;5133678;27;20437;-58
2023/10/05 11:46:12;;;;;;;1.23;0.50;;;18.50;1.00;;;;;;5132619;27;20418;-58
2023/10/05 11:48:48;;;;;;;2.20;0.60;;;18.80;1.00;;;;;;5127777;27;20429;-58
2023/10/05 11:51:19;;;;;;;3.00;0.60;;;18.80;1.00;;;;;;5133569;27;20722;-59
2023/10/05 11:53:47;;;;;;;2.63;0.70;;;18.90;1.00;;;;;;5133110;27;20422;-58
2023/10/05 11:56:17;;;;;;;0.87;0.40;;;19.00;1.00;;;;;;5132818;27;20438;-58
2023/10/05 11:58:47;;;;;;;1.60;0.50;;;18.80;1.00;;;;;;5124007;27;20449;-57
2023/10/05 12:01:17;;;;;;;1.70;0.50;;;18.60;1.00;;;;;;5134409;27;20469;-57
2023/10/05 12:03:47;;;;;;;1.30;0.40;;;18.40;1.00;;;;;;5133569;27;20848;-57
2023/10/05 12:06:23;;;;;;;2.38;0.60;;;18.50;1.00;;;;;;5132465;27;20528;-58
2023/10/05 12:08:53;;;;;;;1.60;0.50;;;18.70;1.00;;;;;;5123934;27;20430;-58
2023/10/05 12:11:23;;;;;;;1.60;0.70;;;19.00;1.00;;;;;;5132493;27;20430;-58
2023/10/05 12:13:56;;;;;;;1.30;0.50;;;19.00;1.00;;;;;;5123996;27;20422;-58
2023/10/05 12:16:25;;;;;;;1.42;0.50;;;18.90;1.00;;;;;;5133775;27;20449;-58
2023/10/05 12:18:54;;;;;;;2.10;0.50;;;18.90;1.00;;;;;;5126848;27;20442;-59
2023/10/05 12:21:21;;;;;;;1.13;0.50;;;19.00;1.00;;;;;;5132353;27;20430;-58
2023/10/05 12:23:49;;;;;;;1.20;0.50;;;19.00;1.00;;;;;;5132511;27;20422;-58
2023/10/05 12:26:16;;;;;;;1.50;0.53;;;18.90;1.00;;;;;;5132805;27;20774;-58
2023/10/05 12:28:43;;;;;;;1.50;0.60;;;19.00;1.00;;;;;;5131441;27;20631;-58
2023/10/05 12:31:12;;;;;;;1.10;0.50;;;19.10;1.00;;;;;;5133766;27;20515;-59
2023/10/05 12:33:40;;;;;;;1.95;0.50;;;19.10;1.00;;;;;;5128242;27;20731;-57
2023/10/05 12:36:12;;;;;;;2.50;0.60;;;19.20;1.00;;;;;;5132657;27;20838;-58
2023/10/05 12:38:39;;;;;;;2.00;0.60;;;19.00;1.00;;;;;;5132732;27;20453;-58
2023/10/05 12:41:13;;;;;;;3.10;0.70;;;18.70;1.00;;;;;;5131234;27;20830;-59
2023/10/05 12:43:44;;;;;;;1.40;0.50;;;18.60;1.00;;;;;;5131975;27;20430;-60
2023/10/05 12:46:11;;;;;;;0.95;0.50;;;18.60;1.00;;;;;;5126714;27;20821;-58
2023/10/05 12:48:40;;;;;;;1.50;0.50;;;18.70;1.00;;;;;;5131597;27;20429;-58
2023/10/05 12:51:09;;;;;;;1.10;0.50;;;18.60;1.00;;;;;;5131745;28;20495;-58
2023/10/05 12:53:37;;;;;;;1.90;0.50;;;18.50;1.00;;;;;;5131982;28;20454;-57
2023/10/05 12:56:05;;;;;;;1.87;0.50;;;18.50;1.00;;;;;;5130004;28;20422;-58
2023/10/05 12:58:33;;;;;;;1.77;0.55;;;18.30;1.00;;;;;;5115370;28;20489;-57
2023/10/05 13:01:07;;;;;;;1.70;0.50;;;18.10;1.00;;;;;;5126260;28;20872;-57
2023/10/05 13:03:35;;;;;;;1.40;0.40;;;17.90;1.00;;;;;;5131741;28;20418;-59
2023/10/05 13:06:10;;;;;;;1.20;0.50;;;17.90;1.00;;;;;;5123901;28;20857;-58
2023/10/05 13:08:43;;;;;;;1.00;0.50;;;17.90;1.00;;;;;;5130665;28;20417;-58
2023/10/05 13:11:11;;;;;;;1.63;0.50;;;17.90;1.00;;;;;;5123159;28;20424;-58
2023/10/05 13:13:40;;;;;;;1.15;0.40;;;17.70;1.00;;;;;;5127783;28;20422;-58
2023/10/05 13:16:13;;;;;;;3.05;0.50;;;17.60;1.00;;;;;;5132608;28;20422;-58
2023/10/05 13:18:42;;;;;;;2.10;0.52;;;17.60;1.00;;;;;;5125190;27;20780;-58